createdAt,value
2019-04-20T00:00:41.689Z,13.80
2019-04-20T00:03:07.684Z,14.00
2019-04-20T00:05:37.170Z,14.00
2019-04-20T00:08:09.171Z,14.00
2019-04-20T00:10:47.345Z,14.10
2019-04-20T00:13:19.457Z,14.10
2019-04-20T00:15:36.893Z,14.10
2019-04-20T00:18:08.082Z,14.10
2019-04-20T00:20:39.085Z,14.00
2019-04-20T00:23:14.577Z,14.00
2019-04-20T00:26:07.729Z,14.00
2019-04-20T00:28:46.037Z,14.10
2019-04-20T00:31:12.689Z,14.00
2019-04-20T00:33:43.350Z,14.00
2019-04-20T00:35:59.017Z,13.90
2019-04-20T00:38:35.207Z,14.00
2019-04-20T00:41:02.680Z,14.00
2019-04-20T00:43:32.316Z,13.90
2019-04-20T00:46:01.160Z,13.90
2019-04-20T00:48:37.429Z,13.80
2019-04-20T00:51:21.450Z,13.80
2019-04-20T00:53:36.310Z,13.70
2019-04-20T00:55:59.330Z,13.60
2019-04-20T00:58:35.239Z,13.60
2019-04-20T01:01:19.923Z,13.50
2019-04-20T01:03:43.232Z,13.50
2019-04-20T01:06:28.556Z,13.50
2019-04-20T01:08:40.124Z,13.50
2019-04-20T01:11:10.203Z,13.40
2019-04-20T01:13:46.578Z,13.40
2019-04-20T01:16:21.828Z,13.30
2019-04-20T01:18:39.176Z,13.20
2019-04-20T01:21:14.057Z,13.20
2019-04-20T01:23:42.931Z,13.10
2019-04-20T01:26:13.017Z,13.10
2019-04-20T01:28:51.136Z,13.10
2019-04-20T01:31:18.804Z,13.00
2019-04-20T01:33:51.896Z,13.00
2019-04-20T01:36:33.416Z,13.00
2019-04-20T01:38:51.377Z,13.00
2019-04-20T01:41:09.685Z,12.90
2019-04-20T01:43:39.412Z,12.90
2019-04-20T01:46:15.093Z,12.90
2019-04-20T01:48:40.259Z,12.90
2019-04-20T01:51:14.090Z,12.90
2019-04-20T01:54:02.410Z,12.90
2019-04-20T01:56:31.186Z,12.80
2019-04-20T01:59:04.608Z,12.80
2019-04-20T02:01:37.360Z,12.80
2019-04-20T02:04:17.195Z,12.70
2019-04-20T02:06:48.127Z,12.70
2019-04-20T02:09:16.683Z,12.70
2019-04-20T02:11:46.501Z,12.70
2019-04-20T02:14:14.276Z,12.60
2019-04-20T02:16:48.088Z,12.70
2019-04-20T02:19:26.526Z,12.70
2019-04-20T02:21:59.107Z,12.70
2019-04-20T02:24:14.859Z,12.70
2019-04-20T02:26:45.101Z,12.80
2019-04-20T02:29:36.910Z,12.80
2019-04-20T02:35:11.588Z,12.90
2019-04-20T02:37:59.821Z,12.80
2019-04-20T02:40:09.220Z,12.90
2019-04-20T02:42:46.393Z,13.00
2019-04-20T02:45:17.441Z,13.00
2019-04-20T02:47:40.405Z,13.10
2019-04-20T02:50:14.156Z,13.20
2019-04-20T02:55:15.168Z,13.20
2019-04-20T02:57:49.330Z,13.10
2019-04-20T03:00:18.269Z,13.20
2019-04-20T03:02:23.584Z,13.20
2019-04-20T03:04:47.822Z,13.20
2019-04-20T03:07:25.534Z,13.10
2019-04-20T03:09:59.327Z,13.10
2019-04-20T03:12:35.161Z,13.10
2019-04-20T03:14:55.247Z,13.00
2019-04-20T03:17:32.698Z,12.90
2019-04-20T03:19:53.655Z,12.80
2019-04-20T03:22:39.560Z,12.70
2019-04-20T03:25:06.884Z,12.80
2019-04-20T03:27:33.037Z,12.80
2019-04-20T03:30:22.549Z,12.80
2019-04-20T03:33:14.084Z,12.70
2019-04-20T03:37:52.642Z,12.70
2019-04-20T03:40:10.071Z,12.70
2019-04-20T03:42:24.448Z,12.60
2019-04-20T03:45:01.789Z,12.60
2019-04-20T03:47:33.775Z,12.60
2019-04-20T03:50:18.521Z,12.60
2019-04-20T03:53:08.625Z,12.60
2019-04-20T03:55:36.323Z,12.50
2019-04-20T03:58:14.244Z,12.50
2019-04-20T04:00:59.494Z,12.40
2019-04-20T04:03:45.131Z,12.40
2019-04-20T04:06:10.537Z,12.30
2019-04-20T04:08:35.397Z,12.30
2019-04-20T04:11:17.509Z,12.20
2019-04-20T04:13:27.412Z,12.20
2019-04-20T04:16:02.638Z,12.20
2019-04-20T04:18:34.689Z,12.10
2019-04-20T04:21:03.019Z,12.00
2019-04-20T04:23:47.090Z,12.00
2019-04-20T04:26:18.667Z,12.00
2019-04-20T04:28:43.809Z,12.00
2019-04-20T04:31:21.494Z,12.00
2019-04-20T04:36:15.484Z,11.90
2019-04-20T04:38:48.741Z,11.90
2019-04-20T04:41:25.650Z,11.90
2019-04-20T04:43:49.507Z,11.90
2019-04-20T04:45:59.943Z,11.90
2019-04-20T04:48:35.105Z,11.90
2019-04-20T04:51:03.402Z,12.00
2019-04-20T04:53:41.698Z,12.10
2019-04-20T04:56:05.830Z,12.20
2019-04-20T04:58:29.817Z,12.20
2019-04-20T05:01:05.569Z,12.30
2019-04-20T05:03:44.767Z,12.40
2019-04-20T05:06:19.706Z,12.50
2019-04-20T05:08:38.706Z,12.60
2019-04-20T05:11:02.607Z,12.60
2019-04-20T05:13:38.087Z,12.70
2019-04-20T05:16:15.823Z,12.80
2019-04-20T05:18:59.061Z,12.90
2019-04-20T05:21:20.802Z,13.00
2019-04-20T05:23:53.344Z,13.10
2019-04-20T05:26:29.900Z,13.20
2019-04-20T05:28:52.718Z,13.30
2019-04-20T05:31:13.905Z,13.40
2019-04-20T05:34:11.476Z,13.50
2019-04-20T05:36:35.760Z,13.60
2019-04-20T05:39:10.037Z,13.70
2019-04-20T05:41:33.241Z,13.80
2019-04-20T05:44:04.636Z,13.90
2019-04-20T05:46:37.065Z,14.00
2019-04-20T05:49:11.730Z,14.10
2019-04-20T05:51:40.908Z,14.30
2019-04-20T05:54:07.245Z,14.40
2019-04-20T05:56:39.958Z,14.60
2019-04-20T05:59:04.805Z,14.70
2019-04-20T06:01:49.918Z,14.80
2019-04-20T06:04:10.219Z,15.00
2019-04-20T06:06:45.164Z,15.10
2019-04-20T06:11:50.103Z,15.40
2019-04-20T06:14:08.079Z,15.50
2019-04-20T06:17:00.110Z,15.50
2019-04-20T06:21:57.906Z,15.80
2019-04-20T06:24:38.011Z,15.90
2019-04-20T06:27:17.945Z,16.00
2019-04-20T06:29:26.342Z,16.00
2019-04-20T06:32:07.034Z,16.00
2019-04-20T06:37:05.772Z,16.30
2019-04-20T06:49:35.403Z,16.60
2019-04-20T06:52:20.343Z,16.80
2019-04-20T06:54:57.806Z,16.90
2019-04-20T06:57:33.110Z,17.00
2019-04-20T07:00:00.408Z,17.10
2019-04-20T07:02:38.634Z,17.20
2019-04-20T07:04:59.712Z,17.20
2019-04-20T07:07:31.580Z,17.30
2019-04-20T07:10:08.597Z,17.40
2019-04-20T07:12:31.155Z,17.60
2019-04-20T07:14:55.527Z,17.80
2019-04-20T07:20:05.996Z,17.90
2019-04-20T07:22:46.639Z,17.90
2019-04-20T07:25:14.409Z,18.00
2019-04-20T07:27:52.071Z,18.10
2019-04-20T07:30:29.949Z,18.30
2019-04-20T07:32:54.467Z,18.30
2019-04-20T07:35:22.075Z,18.20
2019-04-20T07:40:20.116Z,18.30
2019-04-20T07:45:26.159Z,18.50
2019-04-20T07:50:18.643Z,18.70
2019-04-20T07:52:43.286Z,19.00
2019-04-20T07:57:47.282Z,19.10
2019-04-20T08:00:27.549Z,19.20
2019-04-20T08:03:20.429Z,19.30
2019-04-20T08:05:36.468Z,19.40
2019-04-20T08:08:14.842Z,19.50
2019-04-20T08:10:47.511Z,19.50
2019-04-20T08:13:25.704Z,19.50
2019-04-20T08:15:51.225Z,19.50
2019-04-20T08:18:19.429Z,19.70
2019-04-20T08:20:47.546Z,19.80
2019-04-20T08:23:18.168Z,19.80
2019-04-20T08:25:39.577Z,20.10
2019-04-20T08:28:18.488Z,19.90
2019-04-20T08:30:57.067Z,20.60
2019-04-20T08:33:33.544Z,20.70
2019-04-20T08:36:09.180Z,20.80
2019-04-20T08:38:58.335Z,20.70
2019-04-20T08:41:00.484Z,20.90
2019-04-20T08:43:42.077Z,20.90
2019-04-20T08:46:05.584Z,20.90
2019-04-20T08:48:33.259Z,20.90
2019-04-20T08:51:03.464Z,21.00
2019-04-20T08:53:36.855Z,21.10
2019-04-20T08:55:55.327Z,21.20
2019-04-20T08:58:15.915Z,21.40
2019-04-20T09:00:50.146Z,21.40
2019-04-20T09:03:22.871Z,21.60
2019-04-20T09:05:55.309Z,21.70
2019-04-20T09:08:23.501Z,21.80
2019-04-20T09:11:07.038Z,21.60
2019-04-20T09:13:26.923Z,21.50
2019-04-20T09:15:47.095Z,21.40
2019-04-20T09:18:27.197Z,21.50
2019-04-20T09:20:58.412Z,21.50
2019-04-20T09:23:31.570Z,21.50
2019-04-20T09:26:10.138Z,21.50
2019-04-20T09:28:30.513Z,21.60
2019-04-20T09:31:12.836Z,22.00
2019-04-20T09:33:48.683Z,22.30
2019-04-20T09:36:15.290Z,22.60
2019-04-20T09:39:00.034Z,22.70
2019-04-20T09:41:49.003Z,22.70
2019-04-20T09:43:56.539Z,22.70
2019-04-20T09:46:26.312Z,22.70
2019-04-20T09:48:59.894Z,22.60
2019-04-20T09:51:43.740Z,22.60
2019-04-20T09:54:17.460Z,22.50
2019-04-20T09:56:41.909Z,22.40
2019-04-20T09:59:16.693Z,22.40
2019-04-20T10:01:36.738Z,22.50
2019-04-20T10:03:57.078Z,22.70
2019-04-20T10:06:30.020Z,23.10
2019-04-20T10:09:00.077Z,23.30
2019-04-20T10:11:27.597Z,23.50
2019-04-20T10:13:56.489Z,23.50
2019-04-20T10:16:26.015Z,23.50
2019-04-20T10:18:55.296Z,23.60
2019-04-20T10:21:25.646Z,23.50
2019-04-20T10:23:54.592Z,23.70
2019-04-20T10:26:23.170Z,23.60
2019-04-20T10:28:51.938Z,23.60
2019-04-20T10:31:20.486Z,23.70
2019-04-20T10:33:49.347Z,23.80
2019-04-20T10:36:25.775Z,24.00
2019-04-20T10:38:54.816Z,24.10
2019-04-20T10:41:35.985Z,24.10
2019-04-20T10:43:53.637Z,24.00
2019-04-20T10:46:22.691Z,23.90
2019-04-20T10:48:53.320Z,23.90
2019-04-20T10:51:21.823Z,24.00
2019-04-20T10:53:50.629Z,23.90
2019-04-20T10:56:21.337Z,23.90
2019-04-20T10:58:50.071Z,24.20
2019-04-20T11:01:19.948Z,24.30
2019-04-20T11:03:48.535Z,24.50
2019-04-20T11:06:18.557Z,24.50
2019-04-20T11:08:47.160Z,24.30
2019-04-20T11:11:23.167Z,24.30
2019-04-20T11:13:46.111Z,24.30
2019-04-20T11:16:14.803Z,24.30
2019-04-20T11:18:43.526Z,24.50
2019-04-20T11:21:13.341Z,24.70
2019-04-20T11:23:42.482Z,24.80
2019-04-20T11:26:11.491Z,25.00
2019-04-20T11:28:40.057Z,25.10
2019-04-20T11:31:08.579Z,24.80
2019-04-20T11:33:38.285Z,24.80
2019-04-20T11:36:07.442Z,24.80
2019-04-20T11:38:36.084Z,25.10
2019-04-20T11:41:13.525Z,25.30
2019-04-20T11:43:37.696Z,25.50
2019-04-20T11:46:06.922Z,25.50
2019-04-20T11:48:35.611Z,25.70
2019-04-20T11:51:05.447Z,25.80
2019-04-20T11:53:34.243Z,26.30
2019-04-20T11:56:06.716Z,26.80
2019-04-20T11:58:33.317Z,27.60
2019-04-20T12:01:14.218Z,28.40
2019-04-20T12:03:50.630Z,29.30
2019-04-20T12:06:10.567Z,30.20
2019-04-20T12:11:22.729Z,31.90
2019-04-20T12:13:40.593Z,33.00
2019-04-20T12:16:09.843Z,34.10
2019-04-20T12:18:38.425Z,34.90
2019-04-20T12:21:06.965Z,35.40
2019-04-20T12:23:36.226Z,35.90
2019-04-20T12:26:05.170Z,36.20
2019-04-20T12:28:33.732Z,36.10
2019-04-20T12:31:10.011Z,36.10
2019-04-20T12:33:32.679Z,36.30
2019-04-20T12:36:02.545Z,36.70
2019-04-20T12:38:31.216Z,36.90
2019-04-20T12:41:04.008Z,37.30
2019-04-20T12:43:31.771Z,37.40
2019-04-20T12:46:02.083Z,37.40
2019-04-20T12:48:31.491Z,37.10
2019-04-20T12:51:01.522Z,37.20
2019-04-20T12:53:30.737Z,37.60
2019-04-20T12:55:59.574Z,37.70
2019-04-20T12:58:28.503Z,37.70
2019-04-20T13:00:58.252Z,37.40
2019-04-20T13:03:27.666Z,36.70
2019-04-20T13:05:56.620Z,36.40
2019-04-20T13:08:31.836Z,36.00
2019-04-20T13:10:58.356Z,36.30
2019-04-20T13:13:34.581Z,37.40
2019-04-20T13:16:04.860Z,38.40
2019-04-20T13:18:35.079Z,38.90
2019-04-20T13:21:05.082Z,39.50
2019-04-20T13:23:33.630Z,39.90
2019-04-20T13:26:02.684Z,40.20
2019-04-20T13:28:32.825Z,39.70
2019-04-20T13:31:01.914Z,38.60
2019-04-20T13:33:31.476Z,37.90
2019-04-20T13:36:00.136Z,38.10
2019-04-20T13:38:30.178Z,38.70
2019-04-20T13:40:59.854Z,38.90
2019-04-20T13:43:29.739Z,38.80
2019-04-20T13:45:58.667Z,38.90
2019-04-20T13:48:27.281Z,39.00
2019-04-20T13:50:56.118Z,38.60
2019-04-20T13:53:25.341Z,38.70
2019-04-20T13:55:54.144Z,38.30
2019-04-20T13:58:27.688Z,37.70
2019-04-20T14:01:05.130Z,37.10
2019-04-20T14:03:34.809Z,37.30
2019-04-20T14:06:04.609Z,38.10
2019-04-20T14:08:35.632Z,39.10
2019-04-20T14:11:05.250Z,38.90
2019-04-20T14:13:38.970Z,39.00
2019-04-20T14:16:05.108Z,38.40
2019-04-20T14:18:33.691Z,37.90
2019-04-20T14:21:02.581Z,37.50
2019-04-20T14:23:31.088Z,37.60
2019-04-20T14:26:00.789Z,37.90
2019-04-20T14:28:29.304Z,38.70
2019-04-20T14:30:58.191Z,39.20
2019-04-20T14:33:26.727Z,40.00
2019-04-20T14:35:55.272Z,40.90
2019-04-20T14:38:24.284Z,40.60
2019-04-20T14:40:52.902Z,40.50
2019-04-20T14:43:22.405Z,40.20
2019-04-20T14:45:50.977Z,39.30
2019-04-20T14:48:20.654Z,38.60
2019-04-20T14:50:49.758Z,38.80
2019-04-20T14:53:18.264Z,38.90
2019-04-20T14:55:47.191Z,39.30
2019-04-20T14:58:37.576Z,39.60
2019-04-20T15:01:06.761Z,40.20
2019-04-20T15:03:38.726Z,41.00
2019-04-20T15:06:07.545Z,41.80
2019-04-20T15:08:36.886Z,42.00
2019-04-20T15:11:07.186Z,41.50
2019-04-20T15:13:36.376Z,40.60
2019-04-20T15:16:06.549Z,40.40
2019-04-20T15:18:40.068Z,40.80
2019-04-20T15:21:13.437Z,41.40
2019-04-20T15:23:43.630Z,41.80
2019-04-20T15:26:13.080Z,42.40
2019-04-20T15:28:42.132Z,42.40
2019-04-20T15:31:12.165Z,42.00
2019-04-20T15:33:41.131Z,41.60
2019-04-20T15:36:10.530Z,41.50
2019-04-20T15:38:39.131Z,41.40
2019-04-20T15:41:10.167Z,40.90
2019-04-20T15:43:39.157Z,40.80
2019-04-20T15:46:09.517Z,40.70
2019-04-20T15:48:39.747Z,40.80
2019-04-20T15:51:09.830Z,41.20
2019-04-20T15:53:39.782Z,41.10
2019-04-20T15:56:11.265Z,40.80
2019-04-20T15:58:38.759Z,40.70
2019-04-20T16:01:08.247Z,40.90
2019-04-20T16:03:57.323Z,41.10
2019-04-20T16:06:27.243Z,41.20
2019-04-20T16:08:57.516Z,41.20
2019-04-20T16:11:26.632Z,41.60
2019-04-20T16:13:56.266Z,41.70
2019-04-20T16:16:25.814Z,41.10
2019-04-20T16:18:55.026Z,40.50
2019-04-20T16:21:27.640Z,39.90
2019-04-20T16:23:56.814Z,39.60
2019-04-20T16:26:29.813Z,39.80
2019-04-20T16:28:59.603Z,40.10
2019-04-20T16:31:28.830Z,40.10
2019-04-20T16:33:58.757Z,39.50
2019-04-20T16:36:28.455Z,39.40
2019-04-20T16:38:57.495Z,39.30
2019-04-20T16:41:26.455Z,39.30
2019-04-20T16:43:55.412Z,39.40
2019-04-20T16:46:25.703Z,39.10
2019-04-20T16:48:55.029Z,39.10
2019-04-20T16:51:24.977Z,39.10
2019-04-20T16:53:53.998Z,38.90
2019-04-20T16:56:22.620Z,38.70
2019-04-20T16:58:57.273Z,38.80
2019-04-20T17:01:21.652Z,38.80
2019-04-20T17:03:59.241Z,38.80
2019-04-20T17:06:20.775Z,38.60
2019-04-20T17:08:49.635Z,37.90
2019-04-20T17:11:18.264Z,37.80
2019-04-20T17:13:50.064Z,37.70
2019-04-20T17:16:17.549Z,37.80
2019-04-20T17:18:49.947Z,37.80
2019-04-20T17:21:23.154Z,37.40
2019-04-20T17:23:49.180Z,36.90
2019-04-20T17:26:37.299Z,36.40
2019-04-20T17:29:13.769Z,36.20
2019-04-20T17:31:45.200Z,35.90
2019-04-20T17:34:29.997Z,35.80
2019-04-20T17:36:44.616Z,35.70
2019-04-20T17:39:25.218Z,35.60
2019-04-20T17:42:00.578Z,35.50
2019-04-20T17:44:28.638Z,34.90
2019-04-20T17:46:54.295Z,34.30
2019-04-20T17:49:30.619Z,33.20
2019-04-20T17:52:05.097Z,31.80
2019-04-20T17:54:19.881Z,30.40
2019-04-20T17:56:48.745Z,29.30
2019-04-20T17:59:17.257Z,28.40
2019-04-20T18:02:17.850Z,27.50
2019-04-20T18:05:14.204Z,26.90
2019-04-20T18:07:40.754Z,26.20
2019-04-20T18:10:11.377Z,25.70
2019-04-20T18:12:29.403Z,25.30
2019-04-20T18:15:08.164Z,25.00
2019-04-20T18:17:40.589Z,24.50
2019-04-20T18:20:00.922Z,24.20
2019-04-20T18:22:29.948Z,23.80
2019-04-20T18:25:22.485Z,23.50
2019-04-20T18:27:45.973Z,23.20
2019-04-20T18:30:16.023Z,22.90
2019-04-20T18:32:35.759Z,22.70
2019-04-20T18:35:22.491Z,22.40
2019-04-20T18:37:59.130Z,22.30
2019-04-20T18:40:28.918Z,22.10
2019-04-20T18:43:02.822Z,21.90
2019-04-20T18:45:33.797Z,21.70
2019-04-20T18:48:11.690Z,21.40
2019-04-20T18:50:30.577Z,21.30
2019-04-20T18:52:53.949Z,21.20
2019-04-20T18:55:33.223Z,21.00
2019-04-20T18:57:53.067Z,20.80
2019-04-20T19:00:29.737Z,20.70
2019-04-20T19:02:56.093Z,20.60
2019-04-20T19:05:24.409Z,20.50
2019-04-20T19:08:00.038Z,20.30
2019-04-20T19:10:28.779Z,20.20
2019-04-20T19:12:59.915Z,20.10
2019-04-20T19:15:43.924Z,20.00
2019-04-20T19:18:09.808Z,19.90
2019-04-20T19:20:30.787Z,19.80
2019-04-20T19:23:00.051Z,19.80
2019-04-20T19:25:33.123Z,19.70
2019-04-20T19:28:01.443Z,19.60
2019-04-20T19:30:37.368Z,19.50
2019-04-20T19:33:15.041Z,19.40
2019-04-20T19:35:41.590Z,19.30
2019-04-20T19:38:09.822Z,19.20
2019-04-20T19:40:42.963Z,19.20
2019-04-20T19:43:14.862Z,19.10
2019-04-20T19:46:00.092Z,19.10
2019-04-20T19:48:18.939Z,19.00
2019-04-20T19:50:57.715Z,19.00
2019-04-20T19:53:26.418Z,18.90
2019-04-20T19:55:49.095Z,18.80
2019-04-20T19:58:16.218Z,18.70
2019-04-20T20:00:49.096Z,18.70
2019-04-20T20:03:15.708Z,18.60
2019-04-20T20:05:47.969Z,18.50
2019-04-20T20:08:19.694Z,18.50
2019-04-20T20:10:45.862Z,18.40
2019-04-20T20:13:14.972Z,18.30
2019-04-20T20:15:45.121Z,18.30
2019-04-20T20:18:31.006Z,18.30
2019-04-20T20:21:04.005Z,18.10
2019-04-20T20:23:14.531Z,18.10
2019-04-20T20:25:46.446Z,18.00
2019-04-20T20:28:25.855Z,18.00
2019-04-20T20:30:57.013Z,17.90
2019-04-20T20:33:32.627Z,17.90
2019-04-20T20:35:53.720Z,17.80
2019-04-20T20:38:22.794Z,17.60
2019-04-20T20:40:55.069Z,17.60
2019-04-20T20:43:23.110Z,17.50
2019-04-20T20:46:01.340Z,17.50
2019-04-20T20:48:32.505Z,17.40
2019-04-20T20:51:05.238Z,17.40
2019-04-20T20:53:27.228Z,17.30
2019-04-20T20:55:53.285Z,17.20
2019-04-20T20:58:32.511Z,17.10
2019-04-20T21:00:58.529Z,17.00
2019-04-20T21:03:24.739Z,17.00
2019-04-20T21:05:51.471Z,17.00
2019-04-20T21:08:21.638Z,16.90
2019-04-20T21:10:51.061Z,16.90
2019-04-20T21:13:21.409Z,16.90
2019-04-20T21:15:54.143Z,16.90
2019-04-20T21:18:37.767Z,16.90
2019-04-20T21:21:10.256Z,16.80
2019-04-20T21:23:35.358Z,16.80
2019-04-20T21:26:16.997Z,16.80
2019-04-20T21:28:42.047Z,16.70
2019-04-20T21:31:16.235Z,16.60
2019-04-20T21:33:42.901Z,16.60
2019-04-20T21:36:13.553Z,16.50
2019-04-20T21:38:44.309Z,16.50
2019-04-20T21:41:16.531Z,16.40
2019-04-20T21:43:44.644Z,16.30
2019-04-20T21:46:14.048Z,16.20
2019-04-20T21:48:57.081Z,16.20
2019-04-20T21:51:25.765Z,16.10
2019-04-20T21:53:44.295Z,16.00
2019-04-20T21:56:13.024Z,15.90
2019-04-20T21:58:48.250Z,15.80
2019-04-20T22:01:22.254Z,15.70
2019-04-20T22:03:44.788Z,15.80
2019-04-20T22:06:14.036Z,15.70
2019-04-20T22:08:49.782Z,15.60
2019-04-20T22:11:13.607Z,15.60
2019-04-20T22:13:44.598Z,15.50
2019-04-20T22:16:14.618Z,15.50
2019-04-20T22:18:51.851Z,15.50
2019-04-20T22:21:24.858Z,15.40
2019-04-20T22:24:02.145Z,15.30
2019-04-20T22:26:26.833Z,15.30
2019-04-20T22:28:44.647Z,15.20
2019-04-20T22:31:14.062Z,15.10
2019-04-20T22:33:44.932Z,15.00
2019-04-20T22:36:14.531Z,15.00
2019-04-20T22:38:58.100Z,14.90
2019-04-20T22:41:27.681Z,15.00
2019-04-20T22:43:55.127Z,14.90
2019-04-20T22:46:31.115Z,14.80
2019-04-20T22:49:14.349Z,14.70
2019-04-20T22:51:39.967Z,14.50
2019-04-20T22:54:14.899Z,14.50
2019-04-20T22:56:42.047Z,14.50
2019-04-20T22:59:02.168Z,14.50
2019-04-20T23:01:35.083Z,14.40
2019-04-20T23:03:56.855Z,14.30
2019-04-20T23:06:33.414Z,14.20
2019-04-20T23:09:03.163Z,14.10
2019-04-20T23:11:30.646Z,14.10
2019-04-20T23:13:58.205Z,14.00
2019-04-20T23:16:34.091Z,14.00
2019-04-20T23:18:58.158Z,13.90
2019-04-20T23:21:27.969Z,13.90
2019-04-20T23:24:00.392Z,13.80
2019-04-20T23:26:33.501Z,13.70
2019-04-20T23:29:00.447Z,13.70
2019-04-20T23:31:28.761Z,13.60
2019-04-20T23:34:01.368Z,13.10
2019-04-20T23:36:35.385Z,13.60
2019-04-20T23:39:01.225Z,13.50
2019-04-20T23:41:28.064Z,13.50
2019-04-20T23:44:04.566Z,13.40
2019-04-20T23:46:31.525Z,13.40
2019-04-20T23:49:24.029Z,13.40
2019-04-20T23:52:09.968Z,13.30
2019-04-20T23:54:25.178Z,13.30
2019-04-20T23:56:49.975Z,13.20
2019-04-20T23:59:24.627Z,13.20
